createdAt,value
2022-12-28T00:00:39.607Z,100220.10
2022-12-28T00:01:48.702Z,100229.75
2022-12-28T00:02:57.762Z,100219.05
2022-12-28T00:04:06.585Z,100220.30
2022-12-28T00:06:34.077Z,100221.65
2022-12-28T00:07:43.104Z,100218.68
2022-12-28T00:08:56.602Z,100221.27
2022-12-28T00:10:06.778Z,100224.05
2022-12-28T00:12:36.376Z,100224.50
2022-12-28T00:13:45.611Z,100236.33
2022-12-28T00:14:54.439Z,100242.66
2022-12-28T00:17:28.848Z,100236.84
2022-12-28T00:18:38.318Z,100236.33
2022-12-28T00:19:47.472Z,100242.75
2022-12-28T00:21:01.235Z,100229.46
2022-12-28T00:22:11.798Z,100237.37
2022-12-28T00:23:20.919Z,100240.79
2022-12-28T00:24:30.886Z,100231.14
2022-12-28T00:25:39.974Z,100244.42
2022-12-28T00:26:50.425Z,100232.05
2022-12-28T00:27:59.517Z,100228.42
2022-12-28T00:29:08.956Z,100233.67
2022-12-28T00:30:20.244Z,100233.64
2022-12-28T00:31:30.459Z,100238.98
2022-12-28T00:32:40.116Z,100237.22
2022-12-28T00:33:49.898Z,100240.66
2022-12-28T00:34:58.523Z,100251.36
2022-12-28T00:36:12.544Z,100243.32
2022-12-28T00:37:21.371Z,100240.73
2022-12-28T00:38:32.372Z,100240.73
2022-12-28T00:39:42.200Z,100239.11
2022-12-28T00:40:52.417Z,100240.00
2022-12-28T00:42:02.086Z,100236.45
2022-12-28T00:43:12.732Z,100244.55
2022-12-28T00:44:22.613Z,100239.30
2022-12-28T00:45:31.196Z,100242.81
2022-12-28T00:46:40.506Z,100238.94
2022-12-28T00:47:49.148Z,100245.84
2022-12-28T00:48:58.159Z,100240.47
2022-12-28T00:50:09.905Z,100244.83
2022-12-28T00:51:21.324Z,100249.23
2022-12-28T00:52:32.339Z,100240.73
2022-12-28T00:53:41.916Z,100247.80
2022-12-28T00:54:51.548Z,100258.48
2022-12-28T00:56:12.443Z,100259.52
2022-12-28T00:57:21.802Z,100253.17
2022-12-28T00:58:31.497Z,100262.75
2022-12-28T00:59:40.389Z,100266.97
2022-12-28T01:02:05.053Z,100263.79
2022-12-28T01:03:14.005Z,100268.59
2022-12-28T01:04:22.584Z,100273.02
2022-12-28T01:05:33.255Z,100271.18
2022-12-28T01:06:42.288Z,100270.42
2022-12-28T01:07:53.125Z,100270.27
2022-12-28T01:09:01.419Z,100268.40
2022-12-28T01:10:19.034Z,100268.40
2022-12-28T01:11:30.196Z,100273.78
2022-12-28T01:12:38.956Z,100267.09
2022-12-28T01:13:50.177Z,100276.65
2022-12-28T01:15:00.399Z,100276.62
2022-12-28T01:16:28.664Z,100273.02
2022-12-28T01:19:01.898Z,100273.08
2022-12-28T01:20:11.560Z,100275.06
2022-12-28T01:21:23.304Z,100264.25
2022-12-28T01:22:33.952Z,100273.90
2022-12-28T01:23:45.655Z,100263.36
2022-12-28T01:24:55.294Z,100274.75
2022-12-28T01:26:05.991Z,100277.29
2022-12-28T01:27:15.815Z,100278.11
2022-12-28T01:28:24.339Z,100277.23
2022-12-28T01:29:34.325Z,100285.26
2022-12-28T01:30:43.474Z,100278.45
2022-12-28T01:31:52.138Z,100288.95
2022-12-28T01:33:00.829Z,100287.19
2022-12-28T01:34:11.014Z,100286.20
2022-12-28T01:35:19.914Z,100282.60
2022-12-28T01:36:32.671Z,100287.86
2022-12-28T01:37:41.726Z,100284.13
2022-12-28T01:38:56.893Z,100282.91
2022-12-28T01:41:24.487Z,100280.02
2022-12-28T01:42:35.588Z,100282.05
2022-12-28T01:43:53.951Z,100280.15
2022-12-28T01:45:17.294Z,100282.61
2022-12-28T01:47:57.965Z,100274.34
2022-12-28T01:49:10.271Z,100283.16
2022-12-28T01:50:23.267Z,100287.63
2022-12-28T01:51:36.207Z,100289.42
2022-12-28T01:54:09.200Z,100282.11
2022-12-28T01:55:34.703Z,100290.47
2022-12-28T01:56:51.146Z,100288.79
2022-12-28T01:58:06.849Z,100285.31
2022-12-28T01:59:18.897Z,100283.88
2022-12-28T02:00:29.116Z,100293.53
2022-12-28T02:01:39.044Z,100292.62
2022-12-28T02:04:08.842Z,100286.80
2022-12-28T02:05:19.400Z,100281.67
2022-12-28T02:06:29.550Z,100293.06
2022-12-28T02:09:08.779Z,100291.36
2022-12-28T02:10:43.684Z,100283.73
2022-12-28T02:11:31.035Z,100290.53
2022-12-28T02:12:41.002Z,100282.56
2022-12-28T02:13:52.646Z,100282.56
2022-12-28T02:15:02.864Z,100287.22
2022-12-28T02:17:27.901Z,100281.14
2022-12-28T02:18:37.743Z,100289.48
2022-12-28T02:19:49.070Z,100291.35
2022-12-28T02:21:13.369Z,100286.95
2022-12-28T02:22:34.871Z,100283.56
2022-12-28T02:24:08.362Z,100288.91
2022-12-28T02:25:43.397Z,100290.09
2022-12-28T02:26:59.056Z,100295.53
2022-12-28T02:28:27.123Z,100290.28
2022-12-28T02:29:45.987Z,100286.86
2022-12-28T02:30:58.811Z,100294.11
2022-12-28T02:32:25.526Z,100284.45
2022-12-28T02:33:42.836Z,100291.58
2022-12-28T02:35:01.639Z,100291.58
2022-12-28T02:37:47.862Z,100286.45
2022-12-28T02:39:00.637Z,100288.37
2022-12-28T02:40:15.277Z,100287.70
2022-12-28T02:41:26.286Z,100285.61
2022-12-28T02:42:38.058Z,100290.44
2022-12-28T02:43:47.565Z,100289.48
2022-12-28T02:45:36.834Z,100296.61
2022-12-28T02:47:04.923Z,100297.53
2022-12-28T02:48:33.184Z,100297.04
2022-12-28T02:50:01.494Z,100298.91
2022-12-28T02:51:23.811Z,100291.91
2022-12-28T02:52:49.613Z,100293.09
2022-12-28T02:55:56.375Z,100300.88
2022-12-28T02:57:16.756Z,100298.83
2022-12-28T02:58:33.042Z,100298.06
2022-12-28T03:01:54.695Z,100297.27
2022-12-28T03:03:16.933Z,100301.26
2022-12-28T03:04:31.107Z,100310.18
2022-12-28T03:06:19.112Z,100301.51
2022-12-28T03:07:48.467Z,100308.50
2022-12-28T03:11:54.617Z,100296.38
2022-12-28T03:15:49.287Z,100296.41
2022-12-28T03:18:46.099Z,100301.08
2022-12-28T03:20:20.951Z,100310.72
2022-12-28T03:21:50.820Z,100310.88
2022-12-28T03:23:21.113Z,100308.55
2022-12-28T03:24:51.090Z,100316.80
2022-12-28T03:26:23.729Z,100315.25
2022-12-28T03:27:53.627Z,100319.58
2022-12-28T03:29:25.075Z,100311.77
2022-12-28T03:30:55.599Z,100317.84
2022-12-28T03:32:07.565Z,100312.02
2022-12-28T03:33:17.414Z,100320.03
2022-12-28T03:34:27.229Z,100321.70
2022-12-28T03:37:27.450Z,100312.44
2022-12-28T03:38:43.770Z,100325.94
2022-12-28T03:40:02.416Z,100319.70
2022-12-28T03:41:17.652Z,100323.51
2022-12-28T03:42:53.595Z,100327.72
2022-12-28T03:44:25.263Z,100320.60
2022-12-28T03:45:51.539Z,100328.01
2022-12-28T03:47:08.742Z,100320.95
2022-12-28T03:48:19.315Z,100325.47
2022-12-28T03:49:31.215Z,100320.38
2022-12-28T03:50:45.733Z,100323.28
2022-12-28T03:51:57.742Z,100318.95
2022-12-28T03:53:08.625Z,100328.72
2022-12-28T03:54:20.207Z,100328.59
2022-12-28T03:55:30.466Z,100327.31
2022-12-28T03:56:41.449Z,100326.05
2022-12-28T03:57:51.411Z,100330.19
2022-12-28T03:59:03.033Z,100329.84
2022-12-28T04:00:21.063Z,100337.44
2022-12-28T04:01:31.727Z,100329.52
2022-12-28T04:02:41.134Z,100337.27
2022-12-28T04:03:51.207Z,100328.41
2022-12-28T04:05:00.735Z,100332.24
2022-12-28T04:06:12.706Z,100335.09
2022-12-28T04:07:22.337Z,100335.38
2022-12-28T04:08:33.419Z,100335.52
2022-12-28T04:09:42.689Z,100341.81
2022-12-28T04:12:16.246Z,100335.00
2022-12-28T04:14:52.574Z,100338.83
2022-12-28T04:16:05.425Z,100344.61
2022-12-28T04:17:15.748Z,100344.82
2022-12-28T04:18:25.115Z,100344.09
2022-12-28T04:19:35.600Z,100348.52
2022-12-28T04:20:44.484Z,100347.27
2022-12-28T04:21:54.466Z,100347.91
2022-12-28T04:23:04.021Z,100349.47
2022-12-28T04:24:14.889Z,100352.70
2022-12-28T04:25:26.016Z,100356.44
2022-12-28T04:26:35.114Z,100358.05
2022-12-28T04:27:44.784Z,100357.60
2022-12-28T04:28:59.183Z,100362.70
2022-12-28T04:30:16.615Z,100360.89
2022-12-28T04:31:25.169Z,100366.03
2022-12-28T04:32:39.032Z,100365.33
2022-12-28T04:33:47.841Z,100365.40
2022-12-28T04:34:57.167Z,100361.19
2022-12-28T04:36:15.525Z,100362.38
2022-12-28T04:37:25.493Z,100364.19
2022-12-28T04:38:36.196Z,100366.20
2022-12-28T04:39:55.691Z,100357.31
2022-12-28T04:40:56.006Z,100360.62
2022-12-28T04:42:05.508Z,100361.47
2022-12-28T04:43:15.124Z,100359.39
2022-12-28T04:44:23.756Z,100365.80
2022-12-28T04:45:32.862Z,100360.83
2022-12-28T04:46:42.755Z,100366.91
2022-12-28T04:47:51.482Z,100365.87
2022-12-28T04:49:02.328Z,100359.45
2022-12-28T04:50:11.059Z,100362.23
2022-12-28T04:51:24.027Z,100363.72
2022-12-28T04:52:34.880Z,100364.16
2022-12-28T04:53:44.386Z,100366.37
2022-12-28T04:54:53.401Z,100373.72
2022-12-28T04:56:05.666Z,100380.66
2022-12-28T04:57:15.725Z,100373.14
2022-12-28T04:58:24.667Z,100373.55
2022-12-28T04:59:33.888Z,100380.33
2022-12-28T05:00:43.512Z,100379.84
2022-12-28T05:01:53.419Z,100386.84
2022-12-28T05:03:03.553Z,100389.03
2022-12-28T05:04:14.711Z,100387.72
2022-12-28T05:05:23.258Z,100394.72
2022-12-28T05:06:32.104Z,100388.77
2022-12-28T05:07:41.119Z,100389.62
2022-12-28T05:08:50.273Z,100382.47
2022-12-28T05:09:59.997Z,100394.08
2022-12-28T05:11:12.685Z,100395.11
2022-12-28T05:12:22.431Z,100405.69
2022-12-28T05:13:32.661Z,100385.22
2022-12-28T05:14:45.156Z,100399.48
2022-12-28T05:15:54.623Z,100397.71
2022-12-28T05:17:04.530Z,100393.95
2022-12-28T05:18:13.510Z,100400.65
2022-12-28T05:19:23.113Z,100405.45
2022-12-28T05:20:31.861Z,100401.59
2022-12-28T05:21:41.722Z,100405.80
2022-12-28T05:22:50.802Z,100402.32
2022-12-28T05:24:00.451Z,100403.67
2022-12-28T05:25:09.590Z,100403.55
2022-12-28T05:26:22.133Z,100407.25
2022-12-28T05:27:31.717Z,100406.80
2022-12-28T05:28:40.798Z,100402.97
2022-12-28T05:29:49.762Z,100420.66
2022-12-28T05:31:01.426Z,100410.17
2022-12-28T05:32:10.993Z,100413.66
2022-12-28T05:33:22.216Z,100422.48
2022-12-28T05:34:32.482Z,100417.88
2022-12-28T05:35:41.569Z,100412.30
2022-12-28T05:36:51.249Z,100420.82
2022-12-28T05:37:59.795Z,100429.35
2022-12-28T05:39:09.366Z,100428.98
2022-12-28T05:40:18.486Z,100425.47
2022-12-28T05:41:30.291Z,100428.77
2022-12-28T05:42:39.806Z,100429.05
2022-12-28T05:43:49.042Z,100427.21
2022-12-28T05:45:05.170Z,100429.35
2022-12-28T05:46:21.299Z,100433.78
2022-12-28T05:47:31.268Z,100433.08
2022-12-28T05:48:41.981Z,100442.06
2022-12-28T05:49:51.084Z,100451.02
2022-12-28T05:52:23.069Z,100445.58
2022-12-28T05:53:34.234Z,100439.73
2022-12-28T05:54:43.478Z,100439.15
2022-12-28T05:55:52.485Z,100443.61
2022-12-28T05:57:01.237Z,100441.22
2022-12-28T05:58:10.660Z,100447.83
2022-12-28T05:59:19.439Z,100458.14
2022-12-28T06:00:28.839Z,100448.16
2022-12-28T06:01:40.387Z,100458.47
2022-12-28T06:02:50.142Z,100456.61
2022-12-28T06:04:08.002Z,100449.22
2022-12-28T06:05:17.301Z,100457.53
2022-12-28T06:06:28.096Z,100464.39
2022-12-28T06:07:38.751Z,100458.48
2022-12-28T06:08:49.604Z,100459.73
2022-12-28T06:11:19.754Z,100468.09
2022-12-28T09:01:11.651Z,100598.77
2022-12-28T09:03:39.949Z,100593.34
2022-12-28T09:04:49.448Z,100595.33
2022-12-28T09:06:02.306Z,100597.94
2022-12-28T09:07:12.046Z,100602.45
2022-12-28T09:08:21.018Z,100596.80
2022-12-28T09:09:29.760Z,100602.04
2022-12-28T09:10:38.487Z,100607.13
2022-12-28T09:11:49.144Z,100609.59
2022-12-28T09:14:24.491Z,100601.28
2022-12-28T09:15:27.762Z,100609.38
2022-12-28T09:16:39.022Z,100603.14
2022-12-28T09:17:48.145Z,100607.38
2022-12-28T09:18:59.907Z,100607.38
2022-12-28T09:20:10.656Z,100608.23
2022-12-28T09:21:23.010Z,100611.66
2022-12-28T09:22:31.958Z,100603.63
2022-12-28T09:23:42.128Z,100604.59
2022-12-28T09:24:52.758Z,100598.48
2022-12-28T09:27:24.438Z,100605.02
2022-12-28T09:28:34.307Z,100607.00
2022-12-28T09:29:43.047Z,100611.43
2022-12-28T09:30:51.747Z,100610.75
2022-12-28T09:32:01.049Z,100616.87
2022-12-28T09:33:28.548Z,100612.47
2022-12-28T09:34:38.269Z,100608.40
2022-12-28T09:35:47.095Z,100607.57
2022-12-28T09:36:55.856Z,100612.52
2022-12-28T09:38:05.783Z,100614.20
2022-12-28T09:40:36.409Z,100602.30
2022-12-28T09:42:04.991Z,100610.77
2022-12-28T09:43:13.835Z,100603.63
2022-12-28T09:44:45.786Z,100611.61
2022-12-28T09:45:55.823Z,100616.09
2022-12-28T09:47:19.124Z,100609.75
2022-12-28T09:48:31.763Z,100616.64
2022-12-28T09:51:09.544Z,100615.29
2022-12-28T09:52:28.051Z,100614.87
2022-12-28T09:53:37.593Z,100615.72
2022-12-28T09:54:46.555Z,100614.87
2022-12-28T09:57:19.098Z,100615.23
2022-12-28T09:58:31.024Z,100620.93
2022-12-28T09:59:40.282Z,100615.04
2022-12-28T10:02:29.844Z,100618.19
2022-12-28T10:03:41.952Z,100621.95
2022-12-28T10:04:51.372Z,100632.60
2022-12-28T10:06:01.453Z,100627.39
2022-12-28T10:07:13.422Z,100637.84
2022-12-28T10:08:24.405Z,100629.25
2022-12-28T10:09:34.170Z,100634.41
2022-12-28T10:10:50.312Z,100627.25
2022-12-28T10:13:53.470Z,100621.81
2022-12-28T10:14:40.876Z,100628.37
2022-12-28T10:15:51.159Z,100624.67
2022-12-28T10:17:00.435Z,100622.84
2022-12-28T10:19:29.230Z,100628.71
2022-12-28T10:20:40.746Z,100631.74
2022-12-28T10:22:02.980Z,100635.23
2022-12-28T10:24:32.521Z,100636.69
2022-12-28T10:25:41.770Z,100634.23
2022-12-28T10:28:09.521Z,100638.15
2022-12-28T10:30:49.850Z,100634.63
2022-12-28T10:32:12.553Z,100624.80
2022-12-28T10:33:22.719Z,100630.83
2022-12-28T10:34:34.207Z,100634.15
2022-12-28T10:35:52.799Z,100630.66
2022-12-28T10:38:27.677Z,100633.97
2022-12-28T10:39:37.467Z,100630.77
2022-12-28T10:42:08.090Z,100633.59
2022-12-28T10:43:21.955Z,100637.61
2022-12-28T10:44:40.106Z,100651.69
2022-12-28T10:45:52.242Z,100641.09
2022-12-28T10:47:08.398Z,100641.95
2022-12-28T10:48:21.167Z,100635.86
2022-12-28T10:49:38.823Z,100640.44
2022-12-28T10:50:57.452Z,100648.54
2022-12-28T10:53:35.095Z,100648.05
2022-12-28T10:54:44.161Z,100653.75
2022-12-28T10:56:17.511Z,100649.28
2022-12-28T10:57:30.426Z,100658.09
2022-12-28T11:00:22.317Z,100636.09
2022-12-28T11:02:46.700Z,100637.72
2022-12-28T11:03:59.523Z,100639.17
2022-12-28T11:05:12.536Z,100638.98
2022-12-28T11:06:27.386Z,100641.84
2022-12-28T11:07:39.502Z,100651.45
2022-12-28T11:09:17.134Z,100639.90
2022-12-28T11:10:30.632Z,100641.67
2022-12-28T11:11:41.187Z,100644.19
2022-12-28T11:12:56.507Z,100641.36
2022-12-28T11:14:24.722Z,100646.67
2022-12-28T11:15:34.637Z,100641.16
2022-12-28T11:16:44.469Z,100642.81
2022-12-28T11:17:56.593Z,100647.22
2022-12-28T11:19:06.101Z,100654.23
2022-12-28T11:21:42.349Z,100651.34
2022-12-28T11:22:52.071Z,100654.11
2022-12-28T11:24:01.290Z,100651.45
2022-12-28T11:26:31.213Z,100653.67
2022-12-28T11:27:40.186Z,100657.55
2022-12-28T11:28:52.474Z,100655.69
2022-12-28T11:30:02.957Z,100655.62
2022-12-28T11:31:36.806Z,100658.29
2022-12-28T11:32:56.378Z,100666.19
2022-12-28T11:36:47.582Z,100657.47
2022-12-28T11:37:59.261Z,100664.06
2022-12-28T11:39:30.567Z,100666.61
2022-12-28T11:43:34.925Z,100667.87
2022-12-28T11:44:49.248Z,100661.78
2022-12-28T11:46:00.510Z,100661.66
2022-12-28T11:48:40.649Z,100665.89
2022-12-28T11:49:49.275Z,100668.94
2022-12-28T11:51:04.875Z,100673.40
2022-12-28T11:52:23.112Z,100667.16
2022-12-28T11:53:35.447Z,100679.64
2022-12-28T11:56:12.879Z,100674.31
2022-12-28T11:57:38.252Z,100678.35
2022-12-28T11:59:03.791Z,100677.88
2022-12-28T12:01:41.318Z,100678.55
2022-12-28T12:03:02.445Z,100675.16
2022-12-28T12:04:29.242Z,100683.63
2022-12-28T12:05:41.951Z,100680.55
2022-12-28T12:06:57.173Z,100686.09
2022-12-28T12:08:18.572Z,100698.31
2022-12-28T12:11:11.043Z,100692.28
2022-12-28T12:12:23.819Z,100690.83
2022-12-28T12:13:40.127Z,100696.03
2022-12-28T12:17:57.137Z,100702.02
2022-12-28T12:19:08.484Z,100708.53
2022-12-28T12:20:29.964Z,100709.34
2022-12-28T12:24:25.553Z,100711.92
2022-12-28T12:27:10.278Z,100720.76
2022-12-28T12:28:34.384Z,100725.64
2022-12-28T12:31:35.088Z,100712.83
2022-12-28T12:32:50.164Z,100731.04
2022-12-28T12:35:27.461Z,100737.81
2022-12-28T12:37:12.291Z,100744.55
2022-12-28T12:40:16.385Z,100738.44
2022-12-28T12:41:57.740Z,100736.88
2022-12-28T12:44:58.726Z,100742.30
2022-12-28T12:46:31.303Z,100746.08
2022-12-28T12:48:04.141Z,100741.67
2022-12-28T12:49:32.802Z,100747.78
2022-12-28T12:50:58.494Z,100744.44
2022-12-28T12:52:17.207Z,100739.13
2022-12-28T12:55:23.097Z,100745.12
2022-12-28T12:56:47.775Z,100756.95
2022-12-28T12:58:16.838Z,100758.40
2022-12-28T12:59:45.946Z,100767.06
2022-12-28T13:01:07.242Z,100765.19
2022-12-28T13:02:37.321Z,100765.99
2022-12-28T13:03:50.277Z,100776.63
2022-12-28T13:05:02.488Z,100773.90
2022-12-28T13:07:31.227Z,100769.05
2022-12-28T13:08:44.543Z,100774.70
2022-12-28T13:11:13.887Z,100767.93
2022-12-28T13:12:24.746Z,100769.11
2022-12-28T13:13:37.709Z,100776.13
2022-12-28T13:16:09.361Z,100770.25
2022-12-28T13:17:21.795Z,100776.02
2022-12-28T13:18:46.809Z,100768.95
2022-12-28T13:19:42.865Z,100777.77
2022-12-28T13:22:32.085Z,100773.77
2022-12-28T13:23:45.666Z,100781.12
2022-12-28T13:24:54.351Z,100783.84
2022-12-28T13:26:03.443Z,100776.77
2022-12-28T13:27:20.389Z,100779.36
2022-12-28T13:28:36.653Z,100784.70
2022-12-28T13:29:51.992Z,100782.98
2022-12-28T13:31:16.747Z,100785.69
2022-12-28T13:32:32.754Z,100787.41
2022-12-28T13:33:40.959Z,100790.23
2022-12-28T13:34:50.333Z,100785.87
2022-12-28T13:37:28.137Z,100781.00
2022-12-28T13:38:39.367Z,100783.03
2022-12-28T13:39:49.897Z,100788.20
2022-12-28T13:40:59.411Z,100785.53
2022-12-28T13:42:29.291Z,100780.16
2022-12-28T13:44:08.975Z,100788.98
2022-12-28T13:45:20.846Z,100791.53
2022-12-28T13:46:31.132Z,100790.63
2022-12-28T13:49:00.968Z,100787.64
2022-12-28T13:50:19.635Z,100795.05
2022-12-28T13:51:29.675Z,100793.30
2022-12-28T13:52:54.959Z,100794.94
2022-12-28T13:55:43.554Z,100787.45
2022-12-28T13:57:14.674Z,100787.80
2022-12-28T13:59:29.015Z,100793.98
2022-12-28T14:00:39.903Z,100796.06
2022-12-28T14:03:27.037Z,100792.28
2022-12-28T14:05:55.573Z,100791.27
2022-12-28T14:08:23.421Z,100792.10
2022-12-28T14:10:49.943Z,100792.95
2022-12-28T14:11:59.755Z,100792.28
2022-12-28T14:14:26.141Z,100782.26
2022-12-28T14:15:41.149Z,100791.42
2022-12-28T14:16:47.421Z,100786.27
2022-12-28T14:17:56.963Z,100792.55
2022-12-28T14:19:07.753Z,100798.78
2022-12-28T14:20:17.210Z,100794.30
2022-12-28T14:21:33.925Z,100798.63
2022-12-28T14:24:07.137Z,100797.31
2022-12-28T14:25:18.773Z,100801.20
2022-12-28T14:26:30.432Z,100804.73
2022-12-28T14:28:05.189Z,100794.94
2022-12-28T14:30:42.806Z,100798.16
2022-12-28T14:31:58.844Z,100794.89
2022-12-28T14:33:24.979Z,100794.89
2022-12-28T14:34:37.420Z,100799.30
2022-12-28T14:35:49.364Z,100813.52
2022-12-28T14:37:00.005Z,100810.91
2022-12-28T14:38:14.288Z,100806.48
2022-12-28T14:39:31.838Z,100805.53
2022-12-28T14:40:41.194Z,100801.16
2022-12-28T14:41:51.511Z,100802.92
2022-12-28T14:43:04.005Z,100797.66
2022-12-28T14:46:56.274Z,100807.34
2022-12-28T14:49:47.912Z,100800.27
2022-12-28T14:52:36.795Z,100794.19
2022-12-28T14:53:45.625Z,100805.27
2022-12-28T14:59:00.541Z,100793.80
2022-12-28T15:00:16.459Z,100797.14
2022-12-28T15:00:31.819Z,100798.53
2022-12-28T15:04:28.573Z,100800.76
2022-12-28T15:05:43.978Z,100797.47
2022-12-28T15:06:54.402Z,100803.63
2022-12-28T15:08:04.734Z,100801.83
2022-12-28T15:09:14.027Z,100802.72
2022-12-28T15:10:23.056Z,100806.28
2022-12-28T15:11:32.883Z,100804.64
2022-12-28T15:12:42.127Z,100800.28
2022-12-28T15:13:51.362Z,100803.95
2022-12-28T15:15:02.059Z,100811.13
2022-12-28T15:16:13.238Z,100807.68
2022-12-28T15:17:23.240Z,100806.94
2022-12-28T15:19:49.219Z,100803.22
2022-12-28T15:21:05.746Z,100805.39
2022-12-28T15:22:15.927Z,100804.84
2022-12-28T15:24:44.513Z,100800.29
2022-12-28T15:25:52.955Z,100803.24
2022-12-28T15:27:03.734Z,100798.69
2022-12-28T15:29:55.693Z,100791.30
2022-12-28T15:31:58.912Z,100784.34
2022-12-28T15:33:08.706Z,100790.86
2022-12-28T15:35:33.958Z,100789.76
2022-12-28T15:36:44.472Z,100791.92
2022-12-28T15:37:53.140Z,100788.41
2022-12-28T15:39:02.280Z,100788.30
2022-12-28T15:40:12.548Z,100794.38
2022-12-28T15:42:55.558Z,100788.05
2022-12-28T15:45:21.017Z,100783.09
2022-12-28T15:46:30.011Z,100797.73
2022-12-28T15:48:54.363Z,100793.02
2022-12-28T15:50:05.241Z,100795.98
2022-12-28T15:51:13.584Z,100797.84
2022-12-28T15:53:38.427Z,100791.22
2022-12-28T15:54:47.659Z,100802.10
2022-12-28T15:56:01.429Z,100795.93
2022-12-28T15:57:12.354Z,100797.13
2022-12-28T15:58:25.515Z,100802.30
2022-12-28T16:00:50.709Z,100794.73
2022-12-28T16:01:59.828Z,100802.25
2022-12-28T16:03:08.910Z,100801.30
2022-12-28T16:05:32.921Z,100803.00
2022-12-28T16:06:44.899Z,100799.78
2022-12-28T16:09:28.435Z,100797.03
2022-12-28T16:10:39.264Z,100802.69
2022-12-28T16:11:55.437Z,100805.43
2022-12-28T16:13:05.437Z,100800.12
2022-12-28T16:14:16.284Z,100805.30
2022-12-28T16:15:24.699Z,100802.59
2022-12-28T16:16:37.190Z,100800.73
2022-12-28T16:17:54.996Z,100798.89
2022-12-28T16:19:04.988Z,100804.20
2022-12-28T16:20:14.412Z,100799.03
2022-12-28T16:21:25.890Z,100799.94
2022-12-28T16:23:50.705Z,100798.84
2022-12-28T16:25:00.243Z,100802.59
2022-12-28T16:27:26.326Z,100796.19
2022-12-28T16:28:36.190Z,100798.23
2022-12-28T16:31:03.211Z,100795.42
2022-12-28T16:32:12.673Z,100802.82
2022-12-28T16:33:22.300Z,100805.77
2022-12-28T16:34:31.665Z,100804.96
2022-12-28T16:35:41.362Z,100810.13
2022-12-28T16:38:05.665Z,100802.16
2022-12-28T16:39:17.660Z,100804.30
2022-12-28T16:40:27.184Z,100800.65
2022-12-28T16:41:37.571Z,100800.55
2022-12-28T16:42:46.807Z,100804.88
2022-12-28T16:45:15.105Z,100803.49
2022-12-28T16:46:24.433Z,100812.78
2022-12-28T16:48:48.876Z,100797.28
2022-12-28T16:49:57.839Z,100801.11
2022-12-28T16:51:07.989Z,100802.16
2022-12-28T16:52:16.631Z,100802.11
2022-12-28T16:53:25.781Z,100808.51
2022-12-28T16:54:34.336Z,100792.64
2022-12-28T16:55:44.860Z,100797.98
2022-12-28T16:56:54.483Z,100790.98
2022-12-28T16:58:03.860Z,100791.78
2022-12-28T17:00:36.605Z,100789.94
2022-12-28T17:01:46.657Z,100793.77
2022-12-28T17:02:56.235Z,100794.62
2022-12-28T17:04:06.106Z,100790.20
2022-12-28T17:05:16.971Z,100792.28
2022-12-28T17:06:27.017Z,100793.98
2022-12-28T17:07:39.261Z,100790.39
2022-12-28T17:08:47.881Z,100798.36
2022-12-28T17:09:56.506Z,100796.55
2022-12-28T17:11:10.128Z,100786.80
2022-12-28T17:12:18.835Z,100789.31
2022-12-28T17:14:42.617Z,100788.37
2022-12-28T17:15:52.627Z,100799.44
2022-12-28T17:17:01.269Z,100796.83
2022-12-28T17:18:11.125Z,100798.12
2022-12-28T17:20:40.267Z,100799.39
2022-12-28T17:21:49.682Z,100797.19
2022-12-28T17:22:58.711Z,100800.22
2022-12-28T17:24:09.000Z,100795.73
2022-12-28T17:25:18.877Z,100795.52
2022-12-28T17:26:28.778Z,100795.52
2022-12-28T17:27:37.707Z,100794.67
2022-12-28T17:28:46.419Z,100787.42
2022-12-28T17:29:56.067Z,100794.36
2022-12-28T17:32:23.582Z,100786.97
2022-12-28T17:34:49.235Z,100784.55
2022-12-28T17:35:57.925Z,100789.98
2022-12-28T17:37:07.241Z,100789.90
2022-12-28T17:38:16.666Z,100785.45
2022-12-28T17:39:26.300Z,100778.39
2022-12-28T17:41:53.716Z,100776.14
2022-12-28T17:43:02.241Z,100787.60
2022-12-28T17:44:11.368Z,100785.81
2022-12-28T17:45:19.987Z,100791.11
2022-12-28T17:46:29.991Z,100790.21
2022-12-28T17:48:56.992Z,100776.72
2022-12-28T17:50:18.066Z,100774.09
2022-12-28T17:51:28.749Z,100772.33
2022-12-28T17:52:37.280Z,100774.05
2022-12-28T17:53:46.253Z,100773.16
2022-12-28T17:54:55.345Z,100767.72
2022-12-28T17:57:23.053Z,100763.05
2022-12-28T17:58:32.429Z,100776.70
2022-12-28T17:59:41.651Z,100773.96
2022-12-28T18:02:12.743Z,100765.87
2022-12-28T18:03:24.296Z,100777.43
2022-12-28T18:04:35.052Z,100779.22
2022-12-28T18:05:47.749Z,100771.39
2022-12-28T18:06:56.839Z,100778.41
2022-12-28T18:08:06.068Z,100774.95
2022-12-28T18:09:15.201Z,100780.08
2022-12-28T18:10:24.834Z,100770.33
2022-12-28T18:11:33.483Z,100774.56
2022-12-28T18:12:42.103Z,100780.67
2022-12-28T18:13:50.670Z,100779.05
2022-12-28T18:14:59.311Z,100772.76
2022-12-28T18:16:11.781Z,100769.42
2022-12-28T18:17:27.747Z,100777.64
2022-12-28T18:18:36.422Z,100774.98
2022-12-28T18:19:45.324Z,100768.82
2022-12-28T18:21:01.327Z,100771.39
2022-12-28T18:22:10.093Z,100776.66
2022-12-28T18:23:18.660Z,100768.70
2022-12-28T18:24:28.931Z,100776.57
2022-12-28T18:26:52.475Z,100772.81
2022-12-28T18:28:02.988Z,100776.53
2022-12-28T18:30:27.480Z,100778.92
2022-12-28T18:31:36.077Z,100794.16
2022-12-28T18:32:45.342Z,100788.80
2022-12-28T18:33:54.335Z,100795.05
2022-12-28T18:36:18.897Z,100793.94
2022-12-28T18:37:28.120Z,100797.83
2022-12-28T18:38:39.953Z,100795.17
2022-12-28T18:39:50.223Z,100797.39
2022-12-28T18:41:00.899Z,100789.44
2022-12-28T18:42:09.599Z,100787.52
2022-12-28T18:44:33.240Z,100782.64
2022-12-28T18:45:41.716Z,100784.61
2022-12-28T18:48:07.684Z,100781.92
2022-12-28T18:49:16.896Z,100790.00
2022-12-28T18:51:41.089Z,100787.09
2022-12-28T18:52:50.183Z,100789.05
2022-12-28T18:53:59.769Z,100789.14
2022-12-28T18:55:10.187Z,100793.67
2022-12-28T18:57:36.125Z,100793.47
2022-12-28T19:00:03.185Z,100795.39
2022-12-28T19:02:33.195Z,100784.83
2022-12-28T19:03:45.123Z,100788.74
2022-12-28T19:04:54.438Z,100790.61
2022-12-28T19:06:07.664Z,100788.20
2022-12-28T19:07:16.599Z,100787.27
2022-12-28T19:08:25.688Z,100783.72
2022-12-28T19:09:34.363Z,100781.89
2022-12-28T19:10:48.866Z,100790.93
2022-12-28T19:11:58.572Z,100785.47
2022-12-28T19:13:07.543Z,100774.09
2022-12-28T19:14:16.667Z,100785.35
2022-12-28T19:16:43.132Z,100782.25
2022-12-28T19:19:06.743Z,100768.23
2022-12-28T19:21:35.344Z,100769.37
2022-12-28T19:22:45.241Z,100772.19
2022-12-28T19:23:56.066Z,100776.08
2022-12-28T19:25:05.063Z,100772.22
2022-12-28T19:26:14.377Z,100773.12
2022-12-28T19:27:23.027Z,100769.33
2022-12-28T19:28:32.944Z,100768.23
2022-12-28T19:29:41.854Z,100766.22